sensor_id;sensor_type;location;lat;lon;timestamp;P1;durP1;ratioP1;P2;durP2;ratioP2
20283;SDS011;10301;50.832;4.080;2024-02-26T00:01:23;3.77;;;1.60;;
20283;SDS011;10301;50.832;4.080;2024-02-26T00:03:49;3.43;;;1.50;;
20283;SDS011;10301;50.832;4.080;2024-02-26T00:06:15;5.53;;;2.10;;
20283;SDS011;10301;50.832;4.080;2024-02-26T00:08:41;5.13;;;2.10;;
20283;SDS011;10301;50.832;4.080;2024-02-26T00:11:06;4.27;;;1.90;;
20283;SDS011;10301;50.832;4.080;2024-02-26T00:13:32;7.07;;;2.03;;
20283;SDS011;10301;50.832;4.080;2024-02-26T00:15:58;5.73;;;1.90;;
20283;SDS011;10301;50.832;4.080;2024-02-26T00:18:23;6.00;;;2.00;;
20283;SDS011;10301;50.832;4.080;2024-02-26T00:20:49;8.50;;;2.07;;
20283;SDS011;10301;50.832;4.080;2024-02-26T00:23:15;5.70;;;2.00;;
20283;SDS011;10301;50.832;4.080;2024-02-26T00:25:41;5.33;;;2.20;;
20283;SDS011;10301;50.832;4.080;2024-02-26T00:28:08;4.40;;;1.90;;
20283;SDS011;10301;50.832;4.080;2024-02-26T00:30:35;3.87;;;1.93;;
20283;SDS011;10301;50.832;4.080;2024-02-26T00:33:00;4.90;;;2.27;;
20283;SDS011;10301;50.832;4.080;2024-02-26T00:35:26;5.20;;;2.30;;
20283;SDS011;10301;50.832;4.080;2024-02-26T00:37:52;5.70;;;2.20;;
20283;SDS011;10301;50.832;4.080;2024-02-26T00:40:18;4.37;;;2.00;;
20283;SDS011;10301;50.832;4.080;2024-02-26T00:42:43;5.50;;;2.50;;
20283;SDS011;10301;50.832;4.080;2024-02-26T00:45:11;5.20;;;2.20;;
20283;SDS011;10301;50.832;4.080;2024-02-26T00:47:37;4.37;;;2.40;;
20283;SDS011;10301;50.832;4.080;2024-02-26T00:50:06;3.97;;;2.03;;
20283;SDS011;10301;50.832;4.080;2024-02-26T00:52:32;5.70;;;2.10;;
20283;SDS011;10301;50.832;4.080;2024-02-26T00:54:57;4.40;;;2.13;;
20283;SDS011;10301;50.832;4.080;2024-02-26T00:57:23;6.07;;;2.10;;
20283;SDS011;10301;50.832;4.080;2024-02-26T00:59:49;4.87;;;2.23;;
20283;SDS011;10301;50.832;4.080;2024-02-26T01:02:15;4.27;;;2.30;;
20283;SDS011;10301;50.832;4.080;2024-02-26T01:04:41;4.03;;;1.90;;
20283;SDS011;10301;50.832;4.080;2024-02-26T01:07:07;6.53;;;2.00;;
20283;SDS011;10301;50.832;4.080;2024-02-26T01:09:32;4.37;;;2.63;;
20283;SDS011;10301;50.832;4.080;2024-02-26T01:11:58;4.63;;;2.30;;
20283;SDS011;10301;50.832;4.080;2024-02-26T01:14:24;4.40;;;2.17;;
20283;SDS011;10301;50.832;4.080;2024-02-26T01:16:49;4.87;;;2.10;;
20283;SDS011;10301;50.832;4.080;2024-02-26T01:19:15;4.70;;;2.17;;
20283;SDS011;10301;50.832;4.080;2024-02-26T01:21:41;5.73;;;1.80;;
20283;SDS011;10301;50.832;4.080;2024-02-26T01:24:06;5.20;;;2.03;;
20283;SDS011;10301;50.832;4.080;2024-02-26T01:26:32;4.87;;;2.03;;
20283;SDS011;10301;50.832;4.080;2024-02-26T01:28:58;5.83;;;2.00;;
20283;SDS011;10301;50.832;4.080;2024-02-26T01:31:23;4.10;;;1.77;;
20283;SDS011;10301;50.832;4.080;2024-02-26T01:33:49;4.27;;;2.00;;
20283;SDS011;10301;50.832;4.080;2024-02-26T01:36:14;4.00;;;1.80;;
20283;SDS011;10301;50.832;4.080;2024-02-26T01:38:40;3.80;;;2.00;;
20283;SDS011;10301;50.832;4.080;2024-02-26T01:41:06;4.47;;;2.13;;
20283;SDS011;10301;50.832;4.080;2024-02-26T01:43:31;7.10;;;2.07;;
20283;SDS011;10301;50.832;4.080;2024-02-26T01:45:57;5.30;;;2.30;;
20283;SDS011;10301;50.832;4.080;2024-02-26T01:48:23;4.13;;;1.80;;
20283;SDS011;10301;50.832;4.080;2024-02-26T01:50:50;5.80;;;2.10;;
20283;SDS011;10301;50.832;4.080;2024-02-26T01:53:16;4.30;;;2.30;;
20283;SDS011;10301;50.832;4.080;2024-02-26T01:55:43;4.80;;;2.27;;
20283;SDS011;10301;50.832;4.080;2024-02-26T01:58:09;7.70;;;2.33;;
20283;SDS011;10301;50.832;4.080;2024-02-26T02:00:37;4.73;;;2.07;;
20283;SDS011;10301;50.832;4.080;2024-02-26T02:03:04;5.90;;;2.13;;
20283;SDS011;10301;50.832;4.080;2024-02-26T02:05:30;5.27;;;1.87;;
20283;SDS011;10301;50.832;4.080;2024-02-26T02:07:56;4.20;;;1.97;;
20283;SDS011;10301;50.832;4.080;2024-02-26T02:10:23;7.37;;;1.90;;
20283;SDS011;10301;50.832;4.080;2024-02-26T02:12:51;4.83;;;1.90;;
20283;SDS011;10301;50.832;4.080;2024-02-26T02:15:17;4.90;;;1.73;;
20283;SDS011;10301;50.832;4.080;2024-02-26T02:17:43;3.90;;;1.70;;
20283;SDS011;10301;50.832;4.080;2024-02-26T02:20:09;3.57;;;1.90;;
20283;SDS011;10301;50.832;4.080;2024-02-26T02:22:41;4.47;;;1.80;;
20283;SDS011;10301;50.832;4.080;2024-02-26T02:25:07;4.80;;;1.60;;
20283;SDS011;10301;50.832;4.080;2024-02-26T02:27:33;6.77;;;1.93;;
20283;SDS011;10301;50.832;4.080;2024-02-26T02:29:59;6.37;;;2.07;;
20283;SDS011;10301;50.832;4.080;2024-02-26T02:32:25;3.33;;;1.67;;
20283;SDS011;10301;50.832;4.080;2024-02-26T02:34:51;5.27;;;2.17;;
20283;SDS011;10301;50.832;4.080;2024-02-26T02:37:17;5.57;;;1.90;;
20283;SDS011;10301;50.832;4.080;2024-02-26T02:39:43;5.13;;;1.80;;
20283;SDS011;10301;50.832;4.080;2024-02-26T02:42:09;3.67;;;1.70;;
20283;SDS011;10301;50.832;4.080;2024-02-26T02:44:35;3.73;;;1.67;;
20283;SDS011;10301;50.832;4.080;2024-02-26T02:47:01;5.13;;;1.87;;
20283;SDS011;10301;50.832;4.080;2024-02-26T02:49:27;6.10;;;1.50;;
20283;SDS011;10301;50.832;4.080;2024-02-26T02:51:52;4.90;;;1.77;;
20283;SDS011;10301;50.832;4.080;2024-02-26T02:54:22;2.73;;;1.50;;
20283;SDS011;10301;50.832;4.080;2024-02-26T02:56:48;3.97;;;1.90;;
20283;SDS011;10301;50.832;4.080;2024-02-26T02:59:14;3.63;;;1.73;;
20283;SDS011;10301;50.832;4.080;2024-02-26T03:01:39;3.80;;;1.60;;
20283;SDS011;10301;50.832;4.080;2024-02-26T03:04:05;3.93;;;1.80;;
20283;SDS011;10301;50.832;4.080;2024-02-26T03:06:31;4.70;;;1.90;;
20283;SDS011;10301;50.832;4.080;2024-02-26T03:08:56;4.10;;;1.70;;
20283;SDS011;10301;50.832;4.080;2024-02-26T03:11:22;3.40;;;1.70;;
20283;SDS011;10301;50.832;4.080;2024-02-26T03:13:47;3.90;;;1.70;;
20283;SDS011;10301;50.832;4.080;2024-02-26T03:16:13;4.17;;;1.70;;
20283;SDS011;10301;50.832;4.080;2024-02-26T03:18:39;4.50;;;1.53;;
20283;SDS011;10301;50.832;4.080;2024-02-26T03:21:05;4.30;;;1.80;;
20283;SDS011;10301;50.832;4.080;2024-02-26T03:23:31;4.17;;;1.70;;
20283;SDS011;10301;50.832;4.080;2024-02-26T03:26:01;3.60;;;1.50;;
20283;SDS011;10301;50.832;4.080;2024-02-26T03:28:30;6.20;;;2.17;;
20283;SDS011;10301;50.832;4.080;2024-02-26T03:30:58;3.07;;;1.73;;
20283;SDS011;10301;50.832;4.080;2024-02-26T03:33:24;3.20;;;1.70;;
20283;SDS011;10301;50.832;4.080;2024-02-26T03:35:50;3.97;;;2.00;;
20283;SDS011;10301;50.832;4.080;2024-02-26T03:38:16;5.83;;;2.00;;
20283;SDS011;10301;50.832;4.080;2024-02-26T03:40:41;4.07;;;2.00;;
20283;SDS011;10301;50.832;4.080;2024-02-26T03:43:07;4.57;;;2.17;;
20283;SDS011;10301;50.832;4.080;2024-02-26T03:45:33;3.80;;;2.00;;
20283;SDS011;10301;50.832;4.080;2024-02-26T03:47:59;5.60;;;2.50;;
20283;SDS011;10301;50.832;4.080;2024-02-26T03:50:24;6.57;;;2.10;;
20283;SDS011;10301;50.832;4.080;2024-02-26T03:52:50;4.97;;;2.50;;
20283;SDS011;10301;50.832;4.080;2024-02-26T03:55:16;4.87;;;2.37;;
20283;SDS011;10301;50.832;4.080;2024-02-26T03:57:46;4.20;;;2.50;;
20283;SDS011;10301;50.832;4.080;2024-02-26T04:00:11;6.50;;;2.80;;
20283;SDS011;10301;50.832;4.080;2024-02-26T04:02:38;5.07;;;2.73;;
20283;SDS011;10301;50.832;4.080;2024-02-26T04:05:03;4.60;;;2.63;;
20283;SDS011;10301;50.832;4.080;2024-02-26T04:07:30;5.57;;;4.00;;
20283;SDS011;10301;50.832;4.080;2024-02-26T04:09:55;6.10;;;3.63;;
20283;SDS011;10301;50.832;4.080;2024-02-26T04:12:21;5.93;;;3.20;;
20283;SDS011;10301;50.832;4.080;2024-02-26T04:14:47;5.97;;;3.03;;
20283;SDS011;10301;50.832;4.080;2024-02-26T04:17:12;7.53;;;3.70;;
20283;SDS011;10301;50.832;4.080;2024-02-26T04:19:38;7.20;;;4.10;;
20283;SDS011;10301;50.832;4.080;2024-02-26T04:22:03;8.00;;;4.30;;
20283;SDS011;10301;50.832;4.080;2024-02-26T04:24:30;7.27;;;4.30;;
20283;SDS011;10301;50.832;4.080;2024-02-26T04:26:55;8.63;;;3.93;;
20283;SDS011;10301;50.832;4.080;2024-02-26T04:29:21;7.73;;;4.47;;
20283;SDS011;10301;50.832;4.080;2024-02-26T04:31:47;8.93;;;5.00;;
20283;SDS011;10301;50.832;4.080;2024-02-26T04:34:13;7.77;;;5.50;;
20283;SDS011;10301;50.832;4.080;2024-02-26T04:36:38;9.43;;;5.57;;
20283;SDS011;10301;50.832;4.080;2024-02-26T04:39:04;10.00;;;6.03;;
20283;SDS011;10301;50.832;4.080;2024-02-26T04:41:30;9.00;;;5.97;;
20283;SDS011;10301;50.832;4.080;2024-02-26T04:43:55;10.00;;;6.50;;
20283;SDS011;10301;50.832;4.080;2024-02-26T04:46:21;9.73;;;6.90;;
20283;SDS011;10301;50.832;4.080;2024-02-26T04:48:47;9.90;;;7.03;;
20283;SDS011;10301;50.832;4.080;2024-02-26T04:51:12;11.50;;;7.63;;
20283;SDS011;10301;50.832;4.080;2024-02-26T04:53:38;9.00;;;6.53;;
20283;SDS011;10301;50.832;4.080;2024-02-26T04:56:04;11.47;;;7.13;;
20283;SDS011;10301;50.832;4.080;2024-02-26T04:58:30;11.17;;;6.30;;
20283;SDS011;10301;50.832;4.080;2024-02-26T05:00:55;10.37;;;6.53;;
20283;SDS011;10301;50.832;4.080;2024-02-26T05:03:21;10.17;;;6.93;;
20283;SDS011;10301;50.832;4.080;2024-02-26T05:05:47;9.70;;;7.07;;
20283;SDS011;10301;50.832;4.080;2024-02-26T05:08:12;12.43;;;7.73;;
20283;SDS011;10301;50.832;4.080;2024-02-26T05:10:38;12.23;;;6.93;;
20283;SDS011;10301;50.832;4.080;2024-02-26T05:13:08;12.20;;;7.30;;
20283;SDS011;10301;50.832;4.080;2024-02-26T05:15:34;12.67;;;7.60;;
20283;SDS011;10301;50.832;4.080;2024-02-26T05:18:00;12.47;;;7.80;;
20283;SDS011;10301;50.832;4.080;2024-02-26T05:20:25;10.43;;;7.37;;
20283;SDS011;10301;50.832;4.080;2024-02-26T05:22:51;10.83;;;7.50;;
20283;SDS011;10301;50.832;4.080;2024-02-26T05:25:17;14.07;;;8.73;;
20283;SDS011;10301;50.832;4.080;2024-02-26T05:27:43;12.60;;;8.23;;
20283;SDS011;10301;50.832;4.080;2024-02-26T05:30:09;12.13;;;8.23;;
20283;SDS011;10301;50.832;4.080;2024-02-26T05:32:36;12.27;;;8.53;;
20283;SDS011;10301;50.832;4.080;2024-02-26T05:35:02;12.23;;;8.87;;
20283;SDS011;10301;50.832;4.080;2024-02-26T05:37:29;14.37;;;10.03;;
20283;SDS011;10301;50.832;4.080;2024-02-26T05:39:55;14.13;;;9.30;;
20283;SDS011;10301;50.832;4.080;2024-02-26T05:42:20;14.57;;;10.57;;
20283;SDS011;10301;50.832;4.080;2024-02-26T05:44:46;15.97;;;11.30;;
20283;SDS011;10301;50.832;4.080;2024-02-26T05:47:12;19.70;;;11.63;;
20283;SDS011;10301;50.832;4.080;2024-02-26T05:49:38;19.20;;;12.30;;
20283;SDS011;10301;50.832;4.080;2024-02-26T05:52:04;18.73;;;13.37;;
20283;SDS011;10301;50.832;4.080;2024-02-26T05:54:30;18.50;;;12.70;;
20283;SDS011;10301;50.832;4.080;2024-02-26T05:56:57;16.20;;;12.57;;
20283;SDS011;10301;50.832;4.080;2024-02-26T05:59:22;20.33;;;13.47;;
20283;SDS011;10301;50.832;4.080;2024-02-26T06:01:48;19.10;;;13.47;;
20283;SDS011;10301;50.832;4.080;2024-02-26T06:04:14;21.13;;;13.97;;
20283;SDS011;10301;50.832;4.080;2024-02-26T06:06:40;20.30;;;15.33;;
20283;SDS011;10301;50.832;4.080;2024-02-26T06:09:05;22.80;;;14.17;;
20283;SDS011;10301;50.832;4.080;2024-02-26T06:11:31;20.33;;;13.97;;
20283;SDS011;10301;50.832;4.080;2024-02-26T06:13:57;21.10;;;14.50;;
20283;SDS011;10301;50.832;4.080;2024-02-26T06:16:23;19.83;;;15.10;;
20283;SDS011;10301;50.832;4.080;2024-02-26T06:18:49;19.43;;;13.83;;
20283;SDS011;10301;50.832;4.080;2024-02-26T06:21:14;19.40;;;13.47;;
20283;SDS011;10301;50.832;4.080;2024-02-26T06:23:40;20.37;;;13.60;;
20283;SDS011;10301;50.832;4.080;2024-02-26T06:26:06;18.57;;;13.23;;
20283;SDS011;10301;50.832;4.080;2024-02-26T06:28:31;17.37;;;13.57;;
20283;SDS011;10301;50.832;4.080;2024-02-26T06:30:59;18.97;;;13.07;;
20283;SDS011;10301;50.832;4.080;2024-02-26T06:33:24;17.57;;;12.37;;
20283;SDS011;10301;50.832;4.080;2024-02-26T06:35:50;17.43;;;13.70;;
20283;SDS011;10301;50.832;4.080;2024-02-26T06:38:16;17.50;;;13.60;;
20283;SDS011;10301;50.832;4.080;2024-02-26T06:40:42;18.10;;;14.40;;
20283;SDS011;10301;50.832;4.080;2024-02-26T06:43:09;20.43;;;15.20;;
20283;SDS011;10301;50.832;4.080;2024-02-26T06:45:34;19.50;;;14.50;;
20283;SDS011;10301;50.832;4.080;2024-02-26T06:48:00;19.97;;;14.67;;
20283;SDS011;10301;50.832;4.080;2024-02-26T06:50:26;19.90;;;13.47;;
20283;SDS011;10301;50.832;4.080;2024-02-26T06:52:51;18.33;;;13.03;;
20283;SDS011;10301;50.832;4.080;2024-02-26T06:55:17;18.53;;;13.10;;
20283;SDS011;10301;50.832;4.080;2024-02-26T06:57:43;20.20;;;14.70;;
20283;SDS011;10301;50.832;4.080;2024-02-26T07:00:08;19.10;;;15.27;;
20283;SDS011;10301;50.832;4.080;2024-02-26T07:02:39;18.73;;;14.23;;
20283;SDS011;10301;50.832;4.080;2024-02-26T07:05:05;19.50;;;13.37;;
20283;SDS011;10301;50.832;4.080;2024-02-26T07:07:31;17.83;;;13.57;;
20283;SDS011;10301;50.832;4.080;2024-02-26T07:09:57;19.67;;;14.13;;
20283;SDS011;10301;50.832;4.080;2024-02-26T07:12:23;16.93;;;14.90;;
20283;SDS011;10301;50.832;4.080;2024-02-26T07:14:49;18.23;;;14.77;;
20283;SDS011;10301;50.832;4.080;2024-02-26T07:17:15;19.40;;;14.77;;
20283;SDS011;10301;50.832;4.080;2024-02-26T07:19:41;18.07;;;14.43;;
20283;SDS011;10301;50.832;4.080;2024-02-26T07:22:07;15.27;;;11.83;;
20283;SDS011;10301;50.832;4.080;2024-02-26T07:24:33;19.90;;;14.80;;
20283;SDS011;10301;50.832;4.080;2024-02-26T07:26:59;19.33;;;14.43;;
20283;SDS011;10301;50.832;4.080;2024-02-26T07:29:24;19.80;;;14.83;;
20283;SDS011;10301;50.832;4.080;2024-02-26T07:31:50;18.93;;;14.23;;
20283;SDS011;10301;50.832;4.080;2024-02-26T07:34:16;20.50;;;15.30;;
20283;SDS011;10301;50.832;4.080;2024-02-26T07:36:42;19.10;;;15.00;;
20283;SDS011;10301;50.832;4.080;2024-02-26T07:39:08;18.90;;;14.57;;
20283;SDS011;10301;50.832;4.080;2024-02-26T07:41:33;18.47;;;14.93;;
20283;SDS011;10301;50.832;4.080;2024-02-26T07:43:59;18.17;;;14.80;;
20283;SDS011;10301;50.832;4.080;2024-02-26T07:46:25;21.70;;;16.10;;
20283;SDS011;10301;50.832;4.080;2024-02-26T07:48:50;16.93;;;13.40;;
20283;SDS011;10301;50.832;4.080;2024-02-26T07:51:16;19.47;;;15.10;;
20283;SDS011;10301;50.832;4.080;2024-02-26T07:53:42;20.00;;;13.57;;
20283;SDS011;10301;50.832;4.080;2024-02-26T07:56:08;16.40;;;12.43;;
20283;SDS011;10301;50.832;4.080;2024-02-26T07:58:34;17.37;;;12.80;;
20283;SDS011;10301;50.832;4.080;2024-02-26T08:01:00;18.20;;;14.13;;
20283;SDS011;10301;50.832;4.080;2024-02-26T08:03:26;15.83;;;12.57;;
20283;SDS011;10301;50.832;4.080;2024-02-26T08:05:52;19.67;;;13.80;;
20283;SDS011;10301;50.832;4.080;2024-02-26T08:08:17;15.70;;;11.97;;
20283;SDS011;10301;50.832;4.080;2024-02-26T08:10:43;16.40;;;11.70;;
20283;SDS011;10301;50.832;4.080;2024-02-26T08:13:09;14.93;;;11.73;;
20283;SDS011;10301;50.832;4.080;2024-02-26T08:15:35;13.80;;;10.17;;
20283;SDS011;10301;50.832;4.080;2024-02-26T08:18:02;14.90;;;10.77;;
20283;SDS011;10301;50.832;4.080;2024-02-26T08:20:28;13.93;;;9.80;;
20283;SDS011;10301;50.832;4.080;2024-02-26T08:22:54;14.13;;;9.80;;
20283;SDS011;10301;50.832;4.080;2024-02-26T08:25:21;11.67;;;8.87;;
20283;SDS011;10301;50.832;4.080;2024-02-26T08:27:46;12.93;;;9.60;;
20283;SDS011;10301;50.832;4.080;2024-02-26T08:30:13;14.83;;;10.33;;
20283;SDS011;10301;50.832;4.080;2024-02-26T08:32:41;11.17;;;8.00;;
20283;SDS011;10301;50.832;4.080;2024-02-26T08:35:08;13.47;;;9.10;;
20283;SDS011;10301;50.832;4.080;2024-02-26T08:37:33;11.93;;;9.00;;
20283;SDS011;10301;50.832;4.080;2024-02-26T08:39:59;11.67;;;8.83;;
20283;SDS011;10301;50.832;4.080;2024-02-26T08:42:25;10.97;;;8.80;;
20283;SDS011;10301;50.832;4.080;2024-02-26T08:44:50;12.40;;;8.37;;
20283;SDS011;10301;50.832;4.080;2024-02-26T08:47:16;10.70;;;8.67;;
20283;SDS011;10301;50.832;4.080;2024-02-26T08:49:42;11.07;;;8.00;;
20283;SDS011;10301;50.832;4.080;2024-02-26T08:52:09;11.93;;;9.20;;
20283;SDS011;10301;50.832;4.080;2024-02-26T08:54:35;12.43;;;8.87;;
20283;SDS011;10301;50.832;4.080;2024-02-26T08:57:00;11.17;;;8.30;;
20283;SDS011;10301;50.832;4.080;2024-02-26T08:59:26;12.07;;;8.93;;
20283;SDS011;10301;50.832;4.080;2024-02-26T09:01:51;10.97;;;8.73;;
20283;SDS011;10301;50.832;4.080;2024-02-26T09:04:17;10.97;;;8.77;;
20283;SDS011;10301;50.832;4.080;2024-02-26T09:06:43;11.37;;;8.77;;
20283;SDS011;10301;50.832;4.080;2024-02-26T09:09:08;11.30;;;9.30;;
20283;SDS011;10301;50.832;4.080;2024-02-26T09:11:34;12.20;;;8.70;;
20283;SDS011;10301;50.832;4.080;2024-02-26T09:13:59;13.50;;;8.43;;
20283;SDS011;10301;50.832;4.080;2024-02-26T09:16:25;12.33;;;8.43;;
20283;SDS011;10301;50.832;4.080;2024-02-26T09:18:51;11.43;;;8.73;;
20283;SDS011;10301;50.832;4.080;2024-02-26T09:21:16;13.93;;;9.43;;
20283;SDS011;10301;50.832;4.080;2024-02-26T09:23:48;12.90;;;9.40;;
20283;SDS011;10301;50.832;4.080;2024-02-26T09:26:16;12.20;;;8.80;;
20283;SDS011;10301;50.832;4.080;2024-02-26T09:28:42;13.00;;;9.67;;
20283;SDS011;10301;50.832;4.080;2024-02-26T09:31:08;12.70;;;9.87;;
20283;SDS011;10301;50.832;4.080;2024-02-26T09:33:34;11.50;;;8.80;;
20283;SDS011;10301;50.832;4.080;2024-02-26T09:36:00;12.80;;;8.97;;
20283;SDS011;10301;50.832;4.080;2024-02-26T09:38:26;13.20;;;10.60;;
20283;SDS011;10301;50.832;4.080;2024-02-26T09:40:52;12.07;;;9.27;;
20283;SDS011;10301;50.832;4.080;2024-02-26T09:43:19;14.93;;;10.00;;
20283;SDS011;10301;50.832;4.080;2024-02-26T09:45:47;11.80;;;9.17;;
20283;SDS011;10301;50.832;4.080;2024-02-26T09:48:15;13.03;;;9.90;;
20283;SDS011;10301;50.832;4.080;2024-02-26T09:50:42;13.80;;;10.63;;
20283;SDS011;10301;50.832;4.080;2024-02-26T09:53:10;12.47;;;8.43;;
20283;SDS011;10301;50.832;4.080;2024-02-26T09:55:37;12.27;;;8.53;;
20283;SDS011;10301;50.832;4.080;2024-02-26T09:58:04;14.20;;;10.33;;
20283;SDS011;10301;50.832;4.080;2024-02-26T10:00:31;12.83;;;9.90;;
20283;SDS011;10301;50.832;4.080;2024-02-26T10:03:02;13.30;;;8.87;;
20283;SDS011;10301;50.832;4.080;2024-02-26T10:05:29;10.97;;;8.90;;
20283;SDS011;10301;50.832;4.080;2024-02-26T10:07:56;14.20;;;10.33;;
20283;SDS011;10301;50.832;4.080;2024-02-26T10:10:23;12.03;;;8.77;;
20283;SDS011;10301;50.832;4.080;2024-02-26T10:12:49;10.53;;;7.57;;
20283;SDS011;10301;50.832;4.080;2024-02-26T10:15:15;12.73;;;8.07;;
20283;SDS011;10301;50.832;4.080;2024-02-26T10:17:41;11.70;;;9.00;;
20283;SDS011;10301;50.832;4.080;2024-02-26T10:20:13;11.10;;;8.20;;
20283;SDS011;10301;50.832;4.080;2024-02-26T10:22:41;11.17;;;7.80;;
20283;SDS011;10301;50.832;4.080;2024-02-26T10:25:07;11.43;;;8.30;;
20283;SDS011;10301;50.832;4.080;2024-02-26T10:27:33;10.13;;;7.57;;
20283;SDS011;10301;50.832;4.080;2024-02-26T10:32:48;10.07;;;7.13;;
20283;SDS011;10301;50.832;4.080;2024-02-26T10:35:14;11.50;;;7.27;;
20283;SDS011;10301;50.832;4.080;2024-02-26T10:37:41;9.73;;;6.93;;
20283;SDS011;10301;50.832;4.080;2024-02-26T10:40:13;10.47;;;7.20;;
20283;SDS011;10301;50.832;4.080;2024-02-26T10:42:40;9.80;;;6.93;;
20283;SDS011;10301;50.832;4.080;2024-02-26T10:45:06;10.13;;;5.70;;
20283;SDS011;10301;50.832;4.080;2024-02-26T10:47:34;9.63;;;7.10;;
20283;SDS011;10301;50.832;4.080;2024-02-26T10:50:04;9.20;;;7.17;;
20283;SDS011;10301;50.832;4.080;2024-02-26T10:52:31;11.00;;;6.73;;
20283;SDS011;10301;50.832;4.080;2024-02-26T10:55:04;10.23;;;6.43;;
20283;SDS011;10301;50.832;4.080;2024-02-26T10:57:35;9.00;;;6.43;;
20283;SDS011;10301;50.832;4.080;2024-02-26T11:00:05;9.87;;;6.90;;
20283;SDS011;10301;50.832;4.080;2024-02-26T11:02:34;8.87;;;5.90;;
20283;SDS011;10301;50.832;4.080;2024-02-26T11:05:04;8.87;;;6.30;;
20283;SDS011;10301;50.832;4.080;2024-02-26T11:07:31;10.10;;;6.40;;
20283;SDS011;10301;50.832;4.080;2024-02-26T11:09:59;8.90;;;6.13;;
20283;SDS011;10301;50.832;4.080;2024-02-26T11:12:26;8.47;;;5.87;;
20283;SDS011;10301;50.832;4.080;2024-02-26T11:14:53;7.03;;;5.10;;
20283;SDS011;10301;50.832;4.080;2024-02-26T11:17:22;8.27;;;6.33;;
20283;SDS011;10301;50.832;4.080;2024-02-26T11:19:49;8.77;;;6.43;;
20283;SDS011;10301;50.832;4.080;2024-02-26T11:22:16;9.63;;;5.90;;
20283;SDS011;10301;50.832;4.080;2024-02-26T11:24:42;10.40;;;6.53;;
20283;SDS011;10301;50.832;4.080;2024-02-26T11:27:09;9.37;;;7.37;;
20283;SDS011;10301;50.832;4.080;2024-02-26T11:29:43;8.03;;;4.90;;
20283;SDS011;10301;50.832;4.080;2024-02-26T11:32:14;10.40;;;6.23;;
20283;SDS011;10301;50.832;4.080;2024-02-26T11:34:40;8.87;;;5.93;;
20283;SDS011;10301;50.832;4.080;2024-02-26T11:37:10;8.87;;;6.00;;
20283;SDS011;10301;50.832;4.080;2024-02-26T11:39:37;8.03;;;5.50;;
20283;SDS011;10301;50.832;4.080;2024-02-26T11:42:08;7.23;;;5.10;;
20283;SDS011;10301;50.832;4.080;2024-02-26T11:44:36;9.30;;;5.77;;
20283;SDS011;10301;50.832;4.080;2024-02-26T11:47:11;9.53;;;6.50;;
20283;SDS011;10301;50.832;4.080;2024-02-26T11:49:38;7.63;;;5.00;;
20283;SDS011;10301;50.832;4.080;2024-02-26T11:52:08;10.63;;;5.60;;
20283;SDS011;10301;50.832;4.080;2024-02-26T11:57:22;8.07;;;6.20;;
20283;SDS011;10301;50.832;4.080;2024-02-26T11:59:48;8.37;;;5.43;;
20283;SDS011;10301;50.832;4.080;2024-02-26T12:05:17;9.10;;;6.17;;
20283;SDS011;10301;50.832;4.080;2024-02-26T12:07:46;8.03;;;5.63;;
20283;SDS011;10301;50.832;4.080;2024-02-26T12:13:12;7.47;;;5.00;;
20283;SDS011;10301;50.832;4.080;2024-02-26T12:15:45;8.03;;;5.50;;
20283;SDS011;10301;50.832;4.080;2024-02-26T12:18:17;6.23;;;3.80;;
20283;SDS011;10301;50.832;4.080;2024-02-26T12:20:43;6.20;;;4.40;;
20283;SDS011;10301;50.832;4.080;2024-02-26T12:23:10;7.63;;;5.13;;
20283;SDS011;10301;50.832;4.080;2024-02-26T12:25:42;7.90;;;5.80;;
20283;SDS011;10301;50.832;4.080;2024-02-26T12:28:09;7.40;;;5.17;;
20283;SDS011;10301;50.832;4.080;2024-02-26T12:30:35;8.03;;;5.43;;
20283;SDS011;10301;50.832;4.080;2024-02-26T12:33:00;8.80;;;4.93;;
20283;SDS011;10301;50.832;4.080;2024-02-26T12:35:27;6.37;;;4.07;;
20283;SDS011;10301;50.832;4.080;2024-02-26T12:37:53;6.77;;;4.63;;
20283;SDS011;10301;50.832;4.080;2024-02-26T12:40:19;7.00;;;4.27;;
20283;SDS011;10301;50.832;4.080;2024-02-26T12:42:45;7.77;;;5.03;;
20283;SDS011;10301;50.832;4.080;2024-02-26T12:45:12;7.03;;;4.73;;
20283;SDS011;10301;50.832;4.080;2024-02-26T12:47:39;10.33;;;5.83;;
20283;SDS011;10301;50.832;4.080;2024-02-26T12:50:09;6.97;;;5.10;;
20283;SDS011;10301;50.832;4.080;2024-02-26T12:52:43;8.27;;;5.40;;
20283;SDS011;10301;50.832;4.080;2024-02-26T12:55:11;8.27;;;5.60;;
20283;SDS011;10301;50.832;4.080;2024-02-26T12:57:40;8.13;;;5.53;;
20283;SDS011;10301;50.832;4.080;2024-02-26T13:00:08;9.80;;;7.10;;
20283;SDS011;10301;50.832;4.080;2024-02-26T13:02:37;9.10;;;6.13;;
20283;SDS011;10301;50.832;4.080;2024-02-26T13:05:05;8.87;;;5.87;;
20283;SDS011;10301;50.832;4.080;2024-02-26T13:07:33;7.10;;;4.37;;
20283;SDS011;10301;50.832;4.080;2024-02-26T13:09:59;8.47;;;5.10;;
20283;SDS011;10301;50.832;4.080;2024-02-26T13:12:25;9.43;;;6.73;;
20283;SDS011;10301;50.832;4.080;2024-02-26T13:15:01;9.47;;;6.97;;
20283;SDS011;10301;50.832;4.080;2024-02-26T13:17:31;9.13;;;5.60;;
20283;SDS011;10301;50.832;4.080;2024-02-26T13:19:57;11.10;;;6.63;;
20283;SDS011;10301;50.832;4.080;2024-02-26T13:22:22;10.73;;;6.77;;
20283;SDS011;10301;50.832;4.080;2024-02-26T13:24:55;8.33;;;4.83;;
20283;SDS011;10301;50.832;4.080;2024-02-26T13:27:22;10.27;;;6.50;;
20283;SDS011;10301;50.832;4.080;2024-02-26T13:29:48;10.67;;;6.47;;
20283;SDS011;10301;50.832;4.080;2024-02-26T13:32:26;11.20;;;6.37;;
20283;SDS011;10301;50.832;4.080;2024-02-26T13:35:03;9.67;;;6.50;;
20283;SDS011;10301;50.832;4.080;2024-02-26T13:37:31;9.97;;;6.63;;
20283;SDS011;10301;50.832;4.080;2024-02-26T13:39:56;9.67;;;6.10;;
20283;SDS011;10301;50.832;4.080;2024-02-26T13:42:22;9.60;;;6.03;;
20283;SDS011;10301;50.832;4.080;2024-02-26T13:44:48;8.53;;;5.80;;
20283;SDS011;10301;50.832;4.080;2024-02-26T13:47:13;9.93;;;5.97;;
20283;SDS011;10301;50.832;4.080;2024-02-26T13:49:41;8.80;;;6.10;;
20283;SDS011;10301;50.832;4.080;2024-02-26T13:52:06;9.30;;;6.17;;
20283;SDS011;10301;50.832;4.080;2024-02-26T13:54:32;10.47;;;6.27;;
20283;SDS011;10301;50.832;4.080;2024-02-26T13:56:58;10.97;;;7.30;;
20283;SDS011;10301;50.832;4.080;2024-02-26T13:59:24;10.13;;;6.47;;
20283;SDS011;10301;50.832;4.080;2024-02-26T14:01:49;10.30;;;6.33;;
20283;SDS011;10301;50.832;4.080;2024-02-26T14:04:18;10.33;;;6.40;;
20283;SDS011;10301;50.832;4.080;2024-02-26T14:06:43;7.97;;;4.57;;
20283;SDS011;10301;50.832;4.080;2024-02-26T14:09:09;10.07;;;7.07;;
20283;SDS011;10301;50.832;4.080;2024-02-26T14:11:34;10.30;;;6.07;;
20283;SDS011;10301;50.832;4.080;2024-02-26T14:14:01;11.20;;;6.17;;
20283;SDS011;10301;50.832;4.080;2024-02-26T14:16:26;8.60;;;5.73;;
20283;SDS011;10301;50.832;4.080;2024-02-26T14:18:52;8.00;;;4.40;;
20283;SDS011;10301;50.832;4.080;2024-02-26T14:21:18;8.57;;;5.00;;
20283;SDS011;10301;50.832;4.080;2024-02-26T14:23:44;8.17;;;5.70;;
20283;SDS011;10301;50.832;4.080;2024-02-26T14:26:10;8.97;;;5.60;;
20283;SDS011;10301;50.832;4.080;2024-02-26T14:28:36;7.63;;;6.00;;
20283;SDS011;10301;50.832;4.080;2024-02-26T14:31:02;9.20;;;5.67;;
20283;SDS011;10301;50.832;4.080;2024-02-26T14:33:29;6.70;;;4.30;;
20283;SDS011;10301;50.832;4.080;2024-02-26T14:35:55;8.27;;;4.77;;
20283;SDS011;10301;50.832;4.080;2024-02-26T14:38:21;10.40;;;5.90;;
20283;SDS011;10301;50.832;4.080;2024-02-26T14:40:48;8.60;;;4.57;;
20283;SDS011;10301;50.832;4.080;2024-02-26T14:43:14;8.47;;;5.57;;
20283;SDS011;10301;50.832;4.080;2024-02-26T14:45:40;9.90;;;5.33;;